sensor_id;sensor_type;location;lat;lon;timestamp;P1;durP1;ratioP1;P2;durP2;ratioP2
53313;SDS011;39202;51.468;7.146;2023-09-08T00:04:41;2.85;;;2.65;;
53313;SDS011;39202;51.468;7.146;2023-09-08T00:09:43;2.78;;;2.55;;
53313;SDS011;39202;51.468;7.146;2023-09-08T00:14:45;2.80;;;2.60;;
53313;SDS011;39202;51.468;7.146;2023-09-08T00:19:48;3.05;;;2.85;;
53313;SDS011;39202;51.468;7.146;2023-09-08T00:24:50;2.95;;;2.75;;
53313;SDS011;39202;51.468;7.146;2023-09-08T00:29:52;2.95;;;2.75;;
53313;SDS011;39202;51.468;7.146;2023-09-08T00:34:55;3.08;;;2.78;;
53313;SDS011;39202;51.468;7.146;2023-09-08T00:39:57;2.90;;;2.70;;
53313;SDS011;39202;51.468;7.146;2023-09-08T00:44:59;2.72;;;2.53;;
53313;SDS011;39202;51.468;7.146;2023-09-08T00:50:02;2.90;;;2.70;;
53313;SDS011;39202;51.468;7.146;2023-09-08T00:55:05;3.75;;;2.55;;
53313;SDS011;39202;51.468;7.146;2023-09-08T01:00:08;3.03;;;2.83;;
53313;SDS011;39202;51.468;7.146;2023-09-08T01:05:12;2.70;;;2.50;;
53313;SDS011;39202;51.468;7.146;2023-09-08T01:10:14;2.50;;;2.40;;
53313;SDS011;39202;51.468;7.146;2023-09-08T01:15:16;3.33;;;2.95;;
53313;SDS011;39202;51.468;7.146;2023-09-08T01:20:21;2.80;;;2.60;;
53313;SDS011;39202;51.468;7.146;2023-09-08T01:25:26;2.67;;;2.58;;
53313;SDS011;39202;51.468;7.146;2023-09-08T01:30:30;2.97;;;2.78;;
53313;SDS011;39202;51.468;7.146;2023-09-08T01:35:33;3.13;;;2.92;;
53313;SDS011;39202;51.468;7.146;2023-09-08T01:40:37;2.92;;;2.72;;
53313;SDS011;39202;51.468;7.146;2023-09-08T01:45:38;3.00;;;2.80;;
53313;SDS011;39202;51.468;7.146;2023-09-08T01:50:40;3.15;;;2.85;;
53313;SDS011;39202;51.468;7.146;2023-09-08T01:55:43;3.00;;;2.80;;
53313;SDS011;39202;51.468;7.146;2023-09-08T02:00:47;3.08;;;2.88;;
53313;SDS011;39202;51.468;7.146;2023-09-08T02:05:50;3.00;;;2.80;;
53313;SDS011;39202;51.468;7.146;2023-09-08T02:10:53;3.00;;;2.80;;
53313;SDS011;39202;51.468;7.146;2023-09-08T02:15:55;2.85;;;2.65;;
53313;SDS011;39202;51.468;7.146;2023-09-08T02:20:56;3.08;;;2.88;;
53313;SDS011;39202;51.468;7.146;2023-09-08T02:25:59;2.72;;;2.53;;
53313;SDS011;39202;51.468;7.146;2023-09-08T02:31:01;2.88;;;2.70;;
53313;SDS011;39202;51.468;7.146;2023-09-08T02:36:03;2.95;;;2.75;;
53313;SDS011;39202;51.468;7.146;2023-09-08T02:41:07;2.78;;;2.58;;
53313;SDS011;39202;51.468;7.146;2023-09-08T02:46:09;3.10;;;2.90;;
53313;SDS011;39202;51.468;7.146;2023-09-08T02:51:10;2.90;;;2.75;;
53313;SDS011;39202;51.468;7.146;2023-09-08T02:56:14;2.85;;;2.65;;
53313;SDS011;39202;51.468;7.146;2023-09-08T03:01:16;3.10;;;2.90;;
53313;SDS011;39202;51.468;7.146;2023-09-08T03:06:20;2.90;;;2.70;;
53313;SDS011;39202;51.468;7.146;2023-09-08T03:11:23;2.97;;;2.78;;
53313;SDS011;39202;51.468;7.146;2023-09-08T03:16:25;2.88;;;2.67;;
53313;SDS011;39202;51.468;7.146;2023-09-08T03:21:27;3.15;;;2.95;;
53313;SDS011;39202;51.468;7.146;2023-09-08T03:26:30;2.90;;;2.70;;
53313;SDS011;39202;51.468;7.146;2023-09-08T03:31:32;2.80;;;2.60;;
53313;SDS011;39202;51.468;7.146;2023-09-08T03:36:34;2.88;;;2.67;;
53313;SDS011;39202;51.468;7.146;2023-09-08T03:41:38;3.03;;;2.83;;
53313;SDS011;39202;51.468;7.146;2023-09-08T03:46:39;2.83;;;2.63;;
53313;SDS011;39202;51.468;7.146;2023-09-08T03:51:41;2.80;;;2.60;;
53313;SDS011;39202;51.468;7.146;2023-09-08T03:56:44;3.03;;;2.83;;
53313;SDS011;39202;51.468;7.146;2023-09-08T04:01:46;2.50;;;2.40;;
53313;SDS011;39202;51.468;7.146;2023-09-08T04:06:48;2.47;;;2.28;;
53313;SDS011;39202;51.468;7.146;2023-09-08T04:11:51;2.40;;;2.30;;
53313;SDS011;39202;51.468;7.146;2023-09-08T04:16:53;2.80;;;2.60;;
53313;SDS011;39202;51.468;7.146;2023-09-08T04:21:55;2.70;;;2.50;;
53313;SDS011;39202;51.468;7.146;2023-09-08T04:26:58;2.88;;;2.70;;
53313;SDS011;39202;51.468;7.146;2023-09-08T04:32:00;3.08;;;2.88;;
53313;SDS011;39202;51.468;7.146;2023-09-08T04:37:08;2.90;;;2.70;;
53313;SDS011;39202;51.468;7.146;2023-09-08T04:42:12;3.00;;;2.80;;
53313;SDS011;39202;51.468;7.146;2023-09-08T04:47:13;2.88;;;2.67;;
53313;SDS011;39202;51.468;7.146;2023-09-08T04:52:16;4.25;;;2.95;;
53313;SDS011;39202;51.468;7.146;2023-09-08T04:57:19;4.10;;;3.13;;
53313;SDS011;39202;51.468;7.146;2023-09-08T05:02:21;4.57;;;3.10;;
53313;SDS011;39202;51.468;7.146;2023-09-08T05:07:23;3.13;;;2.83;;
53313;SDS011;39202;51.468;7.146;2023-09-08T05:12:26;4.07;;;3.10;;
53313;SDS011;39202;51.468;7.146;2023-09-08T05:17:29;3.30;;;3.05;;
53313;SDS011;39202;51.468;7.146;2023-09-08T05:22:31;4.00;;;3.00;;
53313;SDS011;39202;51.468;7.146;2023-09-08T05:27:34;4.55;;;2.90;;
53313;SDS011;39202;51.468;7.146;2023-09-08T05:32:36;3.40;;;3.15;;
53313;SDS011;39202;51.468;7.146;2023-09-08T05:37:38;2.97;;;2.78;;
53313;SDS011;39202;51.468;7.146;2023-09-08T05:42:42;3.58;;;2.97;;
53313;SDS011;39202;51.468;7.146;2023-09-08T05:47:44;3.45;;;3.20;;
53313;SDS011;39202;51.468;7.146;2023-09-08T05:52:46;3.35;;;2.55;;
53313;SDS011;39202;51.468;7.146;2023-09-08T05:57:49;3.17;;;2.90;;
53313;SDS011;39202;51.468;7.146;2023-09-08T06:02:51;3.17;;;2.90;;
53313;SDS011;39202;51.468;7.146;2023-09-08T06:07:53;2.88;;;2.67;;
53313;SDS011;39202;51.468;7.146;2023-09-08T06:12:56;2.97;;;2.78;;
53313;SDS011;39202;51.468;7.146;2023-09-08T06:17:58;3.28;;;3.08;;
53313;SDS011;39202;51.468;7.146;2023-09-08T06:23:00;3.17;;;2.97;;
53313;SDS011;39202;51.468;7.146;2023-09-08T06:28:03;3.38;;;3.08;;
53313;SDS011;39202;51.468;7.146;2023-09-08T06:33:05;3.70;;;3.40;;
53313;SDS011;39202;51.468;7.146;2023-09-08T06:38:07;3.63;;;3.30;;
53313;SDS011;39202;51.468;7.146;2023-09-08T06:43:10;3.58;;;3.28;;
53313;SDS011;39202;51.468;7.146;2023-09-08T06:48:12;3.78;;;3.47;;
53313;SDS011;39202;51.468;7.146;2023-09-08T06:53:13;3.13;;;2.92;;
53313;SDS011;39202;51.468;7.146;2023-09-08T06:58:17;3.00;;;2.80;;
53313;SDS011;39202;51.468;7.146;2023-09-08T07:03:18;3.17;;;2.97;;
53313;SDS011;39202;51.468;7.146;2023-09-08T07:08:21;3.10;;;2.80;;
53313;SDS011;39202;51.468;7.146;2023-09-08T07:13:24;3.10;;;2.90;;
53313;SDS011;39202;51.468;7.146;2023-09-08T07:18:26;3.13;;;2.90;;
53313;SDS011;39202;51.468;7.146;2023-09-08T07:23:28;3.10;;;2.65;;
53313;SDS011;39202;51.468;7.146;2023-09-08T07:28:31;3.10;;;2.90;;
53313;SDS011;39202;51.468;7.146;2023-09-08T07:33:34;2.85;;;2.65;;
53313;SDS011;39202;51.468;7.146;2023-09-08T07:38:36;2.75;;;2.55;;
53313;SDS011;39202;51.468;7.146;2023-09-08T07:43:40;2.92;;;2.60;;
53313;SDS011;39202;51.468;7.146;2023-09-08T07:48:42;2.95;;;2.75;;
53313;SDS011;39202;51.468;7.146;2023-09-08T07:53:44;2.83;;;2.63;;
53313;SDS011;39202;51.468;7.146;2023-09-08T07:58:47;2.90;;;2.70;;
53313;SDS011;39202;51.468;7.146;2023-09-08T08:03:49;2.78;;;2.58;;
53313;SDS011;39202;51.468;7.146;2023-09-08T08:08:51;3.05;;;2.75;;
53313;SDS011;39202;51.468;7.146;2023-09-08T08:13:54;3.00;;;2.80;;
53313;SDS011;39202;51.468;7.146;2023-09-08T08:18:56;2.97;;;2.63;;
53313;SDS011;39202;51.468;7.146;2023-09-08T08:23:59;2.63;;;2.53;;
53313;SDS011;39202;51.468;7.146;2023-09-08T08:29:02;2.88;;;2.67;;
53313;SDS011;39202;51.468;7.146;2023-09-08T08:34:04;2.83;;;2.63;;
53313;SDS011;39202;51.468;7.146;2023-09-08T08:39:05;2.50;;;2.40;;
53313;SDS011;39202;51.468;7.146;2023-09-08T08:44:09;2.50;;;2.40;;
53313;SDS011;39202;51.468;7.146;2023-09-08T08:49:10;2.50;;;2.30;;
53313;SDS011;39202;51.468;7.146;2023-09-08T08:54:15;2.50;;;2.30;;
53313;SDS011;39202;51.468;7.146;2023-09-08T08:59:19;2.50;;;2.30;;
53313;SDS011;39202;51.468;7.146;2023-09-08T09:04:22;2.88;;;2.67;;
53313;SDS011;39202;51.468;7.146;2023-09-08T09:09:25;4.72;;;2.80;;
53313;SDS011;39202;51.468;7.146;2023-09-08T09:14:28;3.20;;;2.38;;
53313;SDS011;39202;51.468;7.146;2023-09-08T09:19:32;2.60;;;2.40;;
53313;SDS011;39202;51.468;7.146;2023-09-08T09:24:36;2.60;;;2.40;;
53313;SDS011;39202;51.468;7.146;2023-09-08T09:29:45;2.20;;;2.10;;
53313;SDS011;39202;51.468;7.146;2023-09-08T09:34:48;2.35;;;2.25;;
53313;SDS011;39202;51.468;7.146;2023-09-08T09:39:51;2.70;;;2.50;;
53313;SDS011;39202;51.468;7.146;2023-09-08T09:44:55;2.60;;;2.50;;
53313;SDS011;39202;51.468;7.146;2023-09-08T09:49:56;2.63;;;2.45;;
53313;SDS011;39202;51.468;7.146;2023-09-08T09:54:58;2.88;;;2.60;;
53313;SDS011;39202;51.468;7.146;2023-09-08T10:00:02;3.00;;;2.70;;
53313;SDS011;39202;51.468;7.146;2023-09-08T10:05:10;2.33;;;2.22;;
53313;SDS011;39202;51.468;7.146;2023-09-08T10:10:12;2.67;;;2.47;;
53313;SDS011;39202;51.468;7.146;2023-09-08T10:15:17;3.25;;;2.83;;
53313;SDS011;39202;51.468;7.146;2023-09-08T10:20:22;2.53;;;2.33;;
53313;SDS011;39202;51.468;7.146;2023-09-08T10:25:25;2.92;;;2.70;;
53313;SDS011;39202;51.468;7.146;2023-09-08T10:30:31;2.45;;;2.35;;
53313;SDS011;39202;51.468;7.146;2023-09-08T10:35:33;2.47;;;2.30;;
53313;SDS011;39202;51.468;7.146;2023-09-08T10:40:36;2.55;;;2.40;;
53313;SDS011;39202;51.468;7.146;2023-09-08T10:45:40;2.95;;;2.75;;
53313;SDS011;39202;51.468;7.146;2023-09-08T10:50:42;3.55;;;2.42;;
53313;SDS011;39202;51.468;7.146;2023-09-08T10:55:45;2.38;;;2.28;;
53313;SDS011;39202;51.468;7.146;2023-09-08T11:00:51;2.63;;;2.53;;
53313;SDS011;39202;51.468;7.146;2023-09-08T11:05:57;2.53;;;2.42;;
53313;SDS011;39202;51.468;7.146;2023-09-08T11:10:59;2.97;;;2.67;;
53313;SDS011;39202;51.468;7.146;2023-09-08T11:16:03;2.65;;;2.55;;
53313;SDS011;39202;51.468;7.146;2023-09-08T11:21:07;2.75;;;2.55;;
53313;SDS011;39202;51.468;7.146;2023-09-08T11:26:09;3.10;;;2.55;;
53313;SDS011;39202;51.468;7.146;2023-09-08T11:31:14;2.80;;;2.47;;
53313;SDS011;39202;51.468;7.146;2023-09-08T11:36:17;2.55;;;2.35;;
53313;SDS011;39202;51.468;7.146;2023-09-08T11:41:19;2.53;;;2.35;;
53313;SDS011;39202;51.468;7.146;2023-09-08T11:46:25;2.60;;;2.45;;
53313;SDS011;39202;51.468;7.146;2023-09-08T11:51:28;3.20;;;2.90;;
53313;SDS011;39202;51.468;7.146;2023-09-08T11:56:30;2.50;;;2.40;;
53313;SDS011;39202;51.468;7.146;2023-09-08T12:01:34;2.67;;;2.45;;
53313;SDS011;39202;51.468;7.146;2023-09-08T12:06:36;2.78;;;2.58;;
53313;SDS011;39202;51.468;7.146;2023-09-08T12:11:38;2.92;;;2.72;;
53313;SDS011;39202;51.468;7.146;2023-09-08T12:16:44;2.63;;;2.50;;
53313;SDS011;39202;51.468;7.146;2023-09-08T12:21:53;2.67;;;2.40;;
53313;SDS011;39202;51.468;7.146;2023-09-08T12:26:56;3.03;;;2.83;;
53313;SDS011;39202;51.468;7.146;2023-09-08T12:31:59;2.60;;;2.40;;
53313;SDS011;39202;51.468;7.146;2023-09-08T12:37:01;2.80;;;2.60;;
53313;SDS011;39202;51.468;7.146;2023-09-08T12:42:03;3.00;;;2.80;;
53313;SDS011;39202;51.468;7.146;2023-09-08T12:47:08;2.42;;;2.33;;
53313;SDS011;39202;51.468;7.146;2023-09-08T12:52:11;3.00;;;2.80;;
53313;SDS011;39202;51.468;7.146;2023-09-08T12:57:12;2.53;;;2.33;;
53313;SDS011;39202;51.468;7.146;2023-09-08T13:02:15;2.83;;;2.63;;
53313;SDS011;39202;51.468;7.146;2023-09-08T13:07:17;2.63;;;2.42;;
53313;SDS011;39202;51.468;7.146;2023-09-08T13:12:19;2.83;;;2.50;;
53313;SDS011;39202;51.468;7.146;2023-09-08T13:17:22;2.53;;;2.42;;
53313;SDS011;39202;51.468;7.146;2023-09-08T13:22:24;2.50;;;2.35;;
53313;SDS011;39202;51.468;7.146;2023-09-08T13:27:26;3.00;;;2.80;;
53313;SDS011;39202;51.468;7.146;2023-09-08T13:32:30;2.75;;;2.55;;
53313;SDS011;39202;51.468;7.146;2023-09-08T13:37:32;2.60;;;2.40;;
53313;SDS011;39202;51.468;7.146;2023-09-08T13:42:34;2.83;;;2.63;;
53313;SDS011;39202;51.468;7.146;2023-09-08T13:47:37;3.30;;;2.72;;
53313;SDS011;39202;51.468;7.146;2023-09-08T13:52:39;2.63;;;2.53;;
53313;SDS011;39202;51.468;7.146;2023-09-08T13:57:41;4.47;;;2.90;;
53313;SDS011;39202;51.468;7.146;2023-09-08T14:02:44;2.78;;;2.40;;
53313;SDS011;39202;51.468;7.146;2023-09-08T14:07:46;3.17;;;2.85;;
53313;SDS011;39202;51.468;7.146;2023-09-08T14:12:47;2.97;;;2.78;;
53313;SDS011;39202;51.468;7.146;2023-09-08T14:17:51;2.90;;;2.70;;
53313;SDS011;39202;51.468;7.146;2023-09-08T14:22:52;2.70;;;2.50;;
53313;SDS011;39202;51.468;7.146;2023-09-08T14:27:54;2.85;;;2.65;;
53313;SDS011;39202;51.468;7.146;2023-09-08T14:32:57;2.90;;;2.70;;
53313;SDS011;39202;51.468;7.146;2023-09-08T14:37:59;2.85;;;2.65;;
53313;SDS011;39202;51.468;7.146;2023-09-08T14:43:01;3.00;;;2.80;;
53313;SDS011;39202;51.468;7.146;2023-09-08T14:48:04;2.88;;;2.67;;
53313;SDS011;39202;51.468;7.146;2023-09-08T14:53:06;3.42;;;2.70;;
53313;SDS011;39202;51.468;7.146;2023-09-08T14:58:08;3.10;;;2.90;;
53313;SDS011;39202;51.468;7.146;2023-09-08T15:03:12;2.75;;;2.53;;
53313;SDS011;39202;51.468;7.146;2023-09-08T15:08:14;2.78;;;2.58;;
53313;SDS011;39202;51.468;7.146;2023-09-08T15:13:16;2.83;;;2.63;;
53313;SDS011;39202;51.468;7.146;2023-09-08T15:18:19;3.00;;;2.55;;
53313;SDS011;39202;51.468;7.146;2023-09-08T15:23:23;2.75;;;2.58;;
53313;SDS011;39202;51.468;7.146;2023-09-08T15:28:25;2.85;;;2.65;;
53313;SDS011;39202;51.468;7.146;2023-09-08T15:33:28;2.60;;;2.40;;
53313;SDS011;39202;51.468;7.146;2023-09-08T15:38:30;2.55;;;2.38;;
53313;SDS011;39202;51.468;7.146;2023-09-08T15:43:32;2.50;;;2.40;;
53313;SDS011;39202;51.468;7.146;2023-09-08T15:48:35;2.80;;;2.60;;
53313;SDS011;39202;51.468;7.146;2023-09-08T15:53:38;2.88;;;2.67;;
53313;SDS011;39202;51.468;7.146;2023-09-08T15:58:40;2.90;;;2.70;;
53313;SDS011;39202;51.468;7.146;2023-09-08T16:03:43;2.83;;;2.63;;
53313;SDS011;39202;51.468;7.146;2023-09-08T16:08:45;3.03;;;2.63;;
53313;SDS011;39202;51.468;7.146;2023-09-08T16:13:47;3.08;;;2.88;;
53313;SDS011;39202;51.468;7.146;2023-09-08T16:18:50;2.88;;;2.67;;
53313;SDS011;39202;51.468;7.146;2023-09-08T16:23:52;3.20;;;3.00;;
53313;SDS011;39202;51.468;7.146;2023-09-08T16:28:54;2.78;;;2.63;;
53313;SDS011;39202;51.468;7.146;2023-09-08T16:33:57;2.50;;;2.40;;
53313;SDS011;39202;51.468;7.146;2023-09-08T16:38:59;3.17;;;2.70;;
53313;SDS011;39202;51.468;7.146;2023-09-08T16:44:01;3.00;;;2.80;;
53313;SDS011;39202;51.468;7.146;2023-09-08T16:49:04;2.90;;;2.70;;
53313;SDS011;39202;51.468;7.146;2023-09-08T16:54:06;2.95;;;2.78;;
53313;SDS011;39202;51.468;7.146;2023-09-08T16:59:08;2.67;;;2.47;;
53313;SDS011;39202;51.468;7.146;2023-09-08T17:04:11;3.00;;;2.80;;
53313;SDS011;39202;51.468;7.146;2023-09-08T17:09:13;3.03;;;2.83;;
53313;SDS011;39202;51.468;7.146;2023-09-08T17:14:15;3.15;;;2.75;;
53313;SDS011;39202;51.468;7.146;2023-09-08T17:19:18;3.95;;;2.97;;
53313;SDS011;39202;51.468;7.146;2023-09-08T17:24:20;3.53;;;3.20;;
53313;SDS011;39202;51.468;7.146;2023-09-08T17:29:22;4.07;;;3.67;;
53313;SDS011;39202;51.468;7.146;2023-09-08T17:34:25;3.58;;;3.22;;
53313;SDS011;39202;51.468;7.146;2023-09-08T17:39:27;5.15;;;3.50;;
53313;SDS011;39202;51.468;7.146;2023-09-08T17:44:29;6.55;;;3.47;;
53313;SDS011;39202;51.468;7.146;2023-09-08T17:49:32;3.80;;;3.55;;
53313;SDS011;39202;51.468;7.146;2023-09-08T17:54:35;3.65;;;3.35;;
53313;SDS011;39202;51.468;7.146;2023-09-08T17:59:36;3.47;;;3.17;;
53313;SDS011;39202;51.468;7.146;2023-09-08T18:04:41;4.72;;;3.45;;
53313;SDS011;39202;51.468;7.146;2023-09-08T18:09:43;6.13;;;3.72;;
53313;SDS011;39202;51.468;7.146;2023-09-08T18:14:45;3.95;;;3.53;;
53313;SDS011;39202;51.468;7.146;2023-09-08T18:19:48;5.05;;;3.65;;
53313;SDS011;39202;51.468;7.146;2023-09-08T18:24:49;5.22;;;3.38;;
53313;SDS011;39202;51.468;7.146;2023-09-08T18:29:51;4.00;;;3.60;;
53313;SDS011;39202;51.468;7.146;2023-09-08T18:34:55;4.72;;;3.80;;
53313;SDS011;39202;51.468;7.146;2023-09-08T18:39:57;3.40;;;3.10;;
53313;SDS011;39202;51.468;7.146;2023-09-08T18:44:59;3.50;;;3.30;;
53313;SDS011;39202;51.468;7.146;2023-09-08T18:50:02;3.58;;;3.15;;
53313;SDS011;39202;51.468;7.146;2023-09-08T18:55:05;3.83;;;3.38;;
53313;SDS011;39202;51.468;7.146;2023-09-08T19:00:07;4.05;;;3.75;;
53313;SDS011;39202;51.468;7.146;2023-09-08T19:05:12;4.85;;;3.45;;
53313;SDS011;39202;51.468;7.146;2023-09-08T19:10:14;3.78;;;3.50;;
53313;SDS011;39202;51.468;7.146;2023-09-08T19:15:16;5.47;;;3.88;;
53313;SDS011;39202;51.468;7.146;2023-09-08T19:20:19;5.00;;;3.90;;
53313;SDS011;39202;51.468;7.146;2023-09-08T19:25:21;6.43;;;3.90;;
53313;SDS011;39202;51.468;7.146;2023-09-08T19:30:23;6.72;;;3.80;;
53313;SDS011;39202;51.468;7.146;2023-09-08T19:35:26;4.47;;;3.92;;
53313;SDS011;39202;51.468;7.146;2023-09-08T19:40:28;4.43;;;3.67;;
53313;SDS011;39202;51.468;7.146;2023-09-08T19:45:30;4.13;;;3.83;;
53313;SDS011;39202;51.468;7.146;2023-09-08T19:50:33;4.13;;;3.72;;
53313;SDS011;39202;51.468;7.146;2023-09-08T19:55:35;4.50;;;4.10;;
53313;SDS011;39202;51.468;7.146;2023-09-08T20:00:37;3.75;;;3.53;;
53313;SDS011;39202;51.468;7.146;2023-09-08T20:05:42;4.30;;;3.90;;
53313;SDS011;39202;51.468;7.146;2023-09-08T20:10:49;4.28;;;3.97;;
53313;SDS011;39202;51.468;7.146;2023-09-08T20:15:58;4.50;;;4.10;;
53313;SDS011;39202;51.468;7.146;2023-09-08T20:21:02;4.75;;;4.28;;
53313;SDS011;39202;51.468;7.146;2023-09-08T20:26:05;4.47;;;4.07;;
53313;SDS011;39202;51.468;7.146;2023-09-08T20:31:06;4.82;;;4.32;;
53313;SDS011;39202;51.468;7.146;2023-09-08T20:36:10;5.20;;;4.70;;
53313;SDS011;39202;51.468;7.146;2023-09-08T20:41:12;6.15;;;4.75;;
53313;SDS011;39202;51.468;7.146;2023-09-08T20:46:14;6.40;;;5.13;;
53313;SDS011;39202;51.468;7.146;2023-09-08T20:51:17;9.38;;;6.03;;
53313;SDS011;39202;51.468;7.146;2023-09-08T20:56:19;11.43;;;7.22;;
53313;SDS011;39202;51.468;7.146;2023-09-08T21:01:21;13.85;;;7.28;;
53313;SDS011;39202;51.468;7.146;2023-09-08T21:06:24;10.60;;;7.55;;
53313;SDS011;39202;51.468;7.146;2023-09-08T21:11:26;13.75;;;8.32;;
53313;SDS011;39202;51.468;7.146;2023-09-08T21:16:28;17.83;;;9.48;;
53313;SDS011;39202;51.468;7.146;2023-09-08T21:21:31;17.10;;;9.88;;
53313;SDS011;39202;51.468;7.146;2023-09-08T21:26:33;18.95;;;10.32;;
53313;SDS011;39202;51.468;7.146;2023-09-08T21:31:34;23.80;;;11.48;;
53313;SDS011;39202;51.468;7.146;2023-09-08T21:36:37;18.33;;;10.43;;
53313;SDS011;39202;51.468;7.146;2023-09-08T21:41:40;16.98;;;8.85;;
53313;SDS011;39202;51.468;7.146;2023-09-08T21:46:41;16.58;;;9.48;;
53313;SDS011;39202;51.468;7.146;2023-09-08T21:51:44;15.05;;;8.85;;
53313;SDS011;39202;51.468;7.146;2023-09-08T21:56:47;14.15;;;8.38;;
53313;SDS011;39202;51.468;7.146;2023-09-08T22:01:49;15.13;;;8.52;;
53313;SDS011;39202;51.468;7.146;2023-09-08T22:06:52;12.95;;;8.18;;
53313;SDS011;39202;51.468;7.146;2023-09-08T22:11:54;13.60;;;7.78;;
53313;SDS011;39202;51.468;7.146;2023-09-08T22:16:56;11.38;;;7.30;;
53313;SDS011;39202;51.468;7.146;2023-09-08T22:21:59;12.05;;;7.05;;
53313;SDS011;39202;51.468;7.146;2023-09-08T22:27:00;12.18;;;7.18;;
53313;SDS011;39202;51.468;7.146;2023-09-08T22:32:04;8.15;;;5.80;;
53313;SDS011;39202;51.468;7.146;2023-09-08T22:37:07;8.25;;;6.22;;
53313;SDS011;39202;51.468;7.146;2023-09-08T22:42:09;9.40;;;6.28;;
53313;SDS011;39202;51.468;7.146;2023-09-08T22:47:10;7.22;;;5.53;;
53313;SDS011;39202;51.468;7.146;2023-09-08T22:52:13;10.40;;;6.30;;
53313;SDS011;39202;51.468;7.146;2023-09-08T22:57:15;9.20;;;6.18;;
53313;SDS011;39202;51.468;7.146;2023-09-08T23:02:17;8.18;;;5.28;;
53313;SDS011;39202;51.468;7.146;2023-09-08T23:07:20;7.30;;;5.70;;
53313;SDS011;39202;51.468;7.146;2023-09-08T23:12:22;8.65;;;5.97;;
53313;SDS011;39202;51.468;7.146;2023-09-08T23:17:24;8.13;;;5.70;;
53313;SDS011;39202;51.468;7.146;2023-09-08T23:22:27;6.53;;;5.28;;
53313;SDS011;39202;51.468;7.146;2023-09-08T23:27:28;7.32;;;4.97;;
53313;SDS011;39202;51.468;7.146;2023-09-08T23:32:30;8.32;;;5.47;;
53313;SDS011;39202;51.468;7.146;2023-09-08T23:37:33;7.97;;;5.07;;
53313;SDS011;39202;51.468;7.146;2023-09-08T23:42:35;8.27;;;5.30;;
53313;SDS011;39202;51.468;7.146;2023-09-08T23:47:37;7.80;;;5.50;;
53313;SDS011;39202;51.468;7.146;2023-09-08T23:52:40;8.20;;;4.90;;
53313;SDS011;39202;51.468;7.146;2023-09-08T23:57:42;4.72;;;4.30;;
